Time;durP1;ratioP1;P1;durP2;ratioP2;P2;SDS_P1;SDS_P2;PMS_P1;PMS_P2;Temp;Humidity;BMP_temperature;BMP_pressure;BME280_temperature;BME280_humidity;BME280_pressure;Samples;Min_cycle;Max_cycle;Signal;HPM_P1;HPM_P2
2022/08/09 00:01:47;;;;;;;6.05;2.55;;;;;;;;;;5077764;28;20036;-83
2022/08/09 00:04:22;;;;;;;4.00;2.50;;;;;;;;;;5072062;28;20024;-83
2022/08/09 00:06:51;;;;;;;12.55;6.40;;;;;;;;;;5090193;28;20104;-84
2022/08/09 00:09:17;;;;;;;6.30;2.95;;;;;;;;;;5096832;28;20024;-84
2022/08/09 00:11:44;;;;;;;8.25;5.30;;;;;;;;;;5091325;28;20040;-83
2022/08/09 00:14:11;;;;;;;4.63;2.40;;;;;;;;;;5092123;28;20036;-82
2022/08/09 00:16:40;;;;;;;5.28;3.22;;;;;;;;;;5059350;28;20028;-81
2022/08/09 00:19:06;;;;;;;7.07;4.20;;;;;;;;;;5055672;28;20020;-82
2022/08/09 00:21:32;;;;;;;2.97;2.30;;;;;;;;;;5073726;28;20032;-81
2022/08/09 00:23:58;;;;;;;5.53;2.47;;;;;;;;;;5060894;28;20440;-83
2022/08/09 00:26:25;;;;;;;3.25;2.40;;;21.60;66.10;;;;;;5053664;28;20035;-80
2022/08/09 00:28:52;;;;;;;4.47;2.60;;;;;;;;;;5057469;28;20036;-83
2022/08/09 00:31:18;;;;;;;7.70;4.10;;;;;;;;;;5057509;28;20099;-82
2022/08/09 00:33:44;;;;;;;6.75;4.55;;;;;;;;;;5076099;28;20055;-81
2022/08/09 00:36:10;;;;;;;6.53;2.63;;;;;;;;;;5072484;28;20020;-81
2022/08/09 00:38:38;;;;;;;3.47;2.55;;;;;;;;;;5069004;28;20088;-82
2022/08/09 00:41:04;;;;;;;4.60;2.40;;;;;;;;;;5071197;28;20486;-82
2022/08/09 00:43:30;;;;;;;5.32;2.97;;;;;;;;;;5041713;28;20054;-82
2022/08/09 00:45:56;;;;;;;3.72;2.15;;;;;;;;;;5075607;28;20028;-83
2022/08/09 00:48:22;;;;;;;6.97;2.17;;;;;;;;;;5062563;28;20020;-83
2022/08/09 00:50:51;;;;;;;4.57;2.70;;;;;;;;;;5067520;28;20029;-82
2022/08/09 00:53:23;;;;;;;4.43;2.00;;;;;;;;;;5072182;28;20064;-82
2022/08/09 00:55:57;;;;;;;5.45;2.10;;;;;;;;;;5069433;28;20162;-85
2022/08/09 00:58:24;;;;;;;3.33;2.25;;;;;;;;;;5055986;28;20017;-84
2022/08/09 01:00:55;;;;;;;3.00;1.88;;;21.40;66.10;;;;;;5059498;28;20066;-82
2022/08/09 01:03:31;;;;;;;4.85;1.88;;;;;;;;;;5053379;28;20025;-83
2022/08/09 01:06:00;;;;;;;3.00;1.83;;;;;;;;;;5070594;28;20025;-83
2022/08/09 01:08:44;;;;;;;3.40;2.08;;;21.40;66.00;;;;;;5075204;28;20029;-82
2022/08/09 01:11:57;;;;;;;4.20;2.03;;;21.30;66.10;;;;;;5069833;28;20028;-83
2022/08/09 01:14:36;;;;;;;2.63;1.80;;;21.30;66.20;;;;;;5089578;28;20043;-83
2022/08/09 01:17:18;;;;;;;4.65;1.85;;;21.30;66.10;;;;;;5075706;28;20031;-82
2022/08/09 01:20:04;;;;;;;8.70;2.00;;;21.30;65.80;;;;;;5083320;28;20052;-82
2022/08/09 01:22:54;;;;;;;4.05;2.85;;;21.20;66.20;;;;;;5059254;28;20110;-82
2022/08/09 01:25:41;;;;;;;3.35;1.90;;;21.20;66.30;;;;;;5058502;28;20119;-82
2022/08/09 01:28:09;;;;;;;2.97;1.85;;;21.20;66.70;;;;;;5049629;28;20043;-82
2022/08/09 01:30:37;;;;;;;3.45;1.90;;;21.20;65.70;;;;;;5057958;28;20028;-81
2022/08/09 01:33:07;;;;;;;5.25;2.10;;;21.20;66.10;;;;;;5060044;28;20025;-82
2022/08/09 01:35:50;;;;;;;10.00;3.10;;;21.10;66.10;;;;;;5056765;28;20111;-80
2022/08/09 01:38:18;;;;;;;5.35;1.77;;;;;;;;;;5059976;28;20024;-83
2022/08/09 01:40:51;;;;;;;5.40;2.90;;;21.00;66.40;;;;;;5063397;28;20062;-80
2022/08/09 01:43:23;;;;;;;2.92;1.70;;;;;;;;;;5069697;28;20507;-81
2022/08/09 01:45:55;;;;;;;5.63;2.20;;;;;;;;;;5074688;28;20074;-82
2022/08/09 01:48:22;;;;;;;4.55;1.88;;;;;;;;;;5072699;28;20492;-83
2022/08/09 01:50:52;;;;;;;3.38;1.83;;;;;;;;;;5075823;28;20466;-84
2022/08/09 01:53:22;;;;;;;;;;;21.00;66.20;;;;;;5070471;28;20472;-84
2022/08/09 01:55:49;;;;;;;3.70;1.65;;;;;;;;;;5054914;28;19913;-83
2022/08/09 01:58:15;;;;;;;4.00;2.10;;;;;;;;;;5068134;28;20126;-80
2022/08/09 02:00:44;;;;;;;3.70;2.25;;;20.90;66.00;;;;;;5051976;28;20031;-82
2022/08/09 02:03:10;;;;;;;5.82;1.88;;;;;;;;;;5052341;28;20025;-83
2022/08/09 02:05:39;;;;;;;3.00;1.83;;;20.90;66.10;;;;;;5061226;28;20133;-84
2022/08/09 02:08:12;;;;;;;4.82;2.17;;;20.90;66.10;;;;;;5055975;28;20437;-82
2022/08/09 02:10:39;;;;;;;2.67;1.73;;;;;;;;;;5073255;28;20025;-82
2022/08/09 02:13:07;;;;;;;8.38;2.08;;;20.80;66.10;;;;;;5047911;28;20512;-82
2022/08/09 02:15:36;;;;;;;3.70;2.00;;;20.80;66.20;;;;;;5067029;28;20021;-81
2022/08/09 02:18:04;;;;;;;2.35;1.63;;;20.80;66.50;;;;;;5054566;28;20040;-85
2022/08/09 02:20:32;;;;;;;4.03;1.70;;;20.80;66.40;;;;;;5071456;28;20058;-84
2022/08/09 02:23:13;;;;;;;3.10;1.58;;;20.70;66.40;;;;;;5056552;28;20112;-82
2022/08/09 02:25:41;;;;;;;3.63;1.98;;;20.60;66.80;;;;;;5075575;28;20033;-81
2022/08/09 02:28:15;;;;;;;4.75;1.70;;;20.70;67.20;;;;;;5054484;28;20024;-82
2022/08/09 02:30:57;;;;;;;2.40;1.63;;;20.50;67.00;;;;;;5048907;28;20021;-83
2022/08/09 02:33:26;;;;;;;4.63;1.80;;;20.50;67.50;;;;;;5042545;28;20020;-81
2022/08/09 02:35:57;;;;;;;3.33;1.40;;;20.50;67.20;;;;;;5070846;28;20487;-81
2022/08/09 02:38:30;;;;;;;2.10;1.40;;;20.40;67.60;;;;;;5053961;28;20040;-84
2022/08/09 02:41:02;;;;;;;7.22;1.60;;;20.40;67.30;;;;;;5069456;28;20036;-82
2022/08/09 02:43:28;;;;;;;4.00;1.65;;;;;;;;;;5052173;28;20108;-83
2022/08/09 02:45:59;;;;;;;2.47;1.50;;;;;;;;;;5049682;28;20028;-82
2022/08/09 02:48:31;;;;;;;3.10;1.60;;;;;;;;;;5068205;28;20132;-82
2022/08/09 02:50:59;;;;;;;2.20;1.50;;;;;;;;;;5069148;28;20085;-82
2022/08/09 02:53:26;;;;;;;5.05;1.65;;;;;;;;;;5067650;28;20504;-81
2022/08/09 02:55:57;;;;;;;5.40;1.58;;;;;;;;;;5078019;28;20028;-82
2022/08/09 02:58:25;;;;;;;2.92;1.52;;;19.90;68.70;;;;;;5068352;28;20461;-82
2022/08/09 03:00:52;;;;;;;3.28;1.70;;;;;;;;;;5078291;28;20024;-80
2022/08/09 03:03:20;;;;;;;4.10;1.77;;;;;;;;;;5096554;28;20034;-84
2022/08/09 03:05:48;;;;;;;3.70;1.83;;;;;;;;;;5093158;28;20076;-84
2022/08/09 03:08:15;;;;;;;2.53;1.60;;;20.10;68.50;;;;;;5065873;28;20037;-84
2022/08/09 03:10:41;;;;;;;5.30;1.70;;;;;;;;;;5050913;28;20409;-81
2022/08/09 03:13:08;;;;;;;5.22;1.90;;;;;;;;;;5075107;28;20029;-82
2022/08/09 03:15:34;;;;;;;2.78;1.60;;;;;;;;;;5045396;28;20485;-82
2022/08/09 03:18:02;;;;;;;3.10;1.60;;;;;;;;;;5074527;28;20052;-81
2022/08/09 03:20:29;;;;;;;4.15;1.63;;;;;;;;;;5072142;28;20017;-82
2022/08/09 03:22:56;;;;;;;2.83;1.52;;;20.00;68.60;;;;;;5061931;28;20044;-82
2022/08/09 03:25:23;;;;;;;3.08;1.70;;;;;;;;;;5055174;28;20029;-83
2022/08/09 03:27:50;;;;;;;4.60;1.88;;;;;;;;;;5078612;28;20036;-83
2022/08/09 03:30:16;;;;;;;5.68;1.70;;;;;;;;;;5074118;28;20077;-82
2022/08/09 03:33:26;;;;;;;5.13;1.80;;;;;;;;;;5059938;28;20044;-82
2022/08/09 03:36:26;;;;;;;3.58;1.50;;;;;;;;;;5073789;28;20478;-82
2022/08/09 03:39:08;;;;;;;4.53;1.67;;;;;;;;;;5068021;28;20017;-83
2022/08/09 03:41:51;;;;;;;3.45;1.83;;;;;;;;;;5071336;28;20044;-81
2022/08/09 03:48:02;;;;;;;3.08;1.85;;;;;;;;;;5068537;28;20032;-84
2022/08/09 03:50:43;;;;;;;2.55;1.70;;;;;;;;;;5080885;28;20031;-83
2022/08/09 03:53:26;;;;;;;3.35;1.60;;;;;;;;;;5088624;28;20089;-83
2022/08/09 03:58:53;;;;;;;5.38;2.10;;;;;;;;;;5077287;28;20119;-85
2022/08/09 04:01:32;;;;;;;4.78;2.00;;;;;;;;;;5071816;28;20040;-80
2022/08/09 04:04:11;;;;;;;3.63;1.60;;;;;;;;;;5049871;28;20041;-83
2022/08/09 04:07:03;;;;;;;2.22;1.50;;;;;;;;;;5068018;28;20116;-82
2022/08/09 04:10:01;;;;;;;3.47;1.45;;;19.60;69.40;;;;;;5069404;28;20663;-84
2022/08/09 04:13:08;;;;;;;4.28;2.15;;;19.70;69.40;;;;;;5066745;28;20029;-82
2022/08/09 04:15:36;;;;;;;2.53;1.60;;;;;;;;;;5076390;28;20037;-82
2022/08/09 04:18:14;;;;;;;3.15;1.45;;;;;;;;;;5052738;28;20044;-81
2022/08/09 04:20:57;;;;;;;3.25;1.63;;;;;;;;;;5058557;28;20032;-83
2022/08/09 04:23:42;;;;;;;4.15;1.60;;;;;;;;;;5078031;28;20029;-82
2022/08/09 04:26:14;;;;;;;4.28;1.83;;;;;;;;;;5057422;28;20025;-83
2022/08/09 04:29:03;;;;;;;3.50;1.58;;;19.60;69.80;;;;;;5057071;28;20031;-82
2022/08/09 04:31:29;;;;;;;4.13;1.55;;;;;;;;;;5079631;28;20036;-84
2022/08/09 04:33:58;;;;;;;7.40;2.95;;;;;;;;;;5061450;28;20502;-81
2022/08/09 04:36:28;;;;;;;4.10;1.83;;;;;;;;;;5071841;28;20051;-81
2022/08/09 04:38:56;;;;;;;2.88;2.00;;;;;;;;;;5062688;28;20031;-84
2022/08/09 04:41:23;;;;;;;2.85;1.70;;;;;;;;;;5057569;28;20029;-84
2022/08/09 04:44:00;;;;;;;3.67;1.90;;;;;;;;;;5073905;28;20028;-84
2022/08/09 04:46:37;;;;;;;2.60;1.80;;;;;;;;;;5057317;28;20024;-84
2022/08/09 04:49:04;;;;;;;3.92;1.70;;;;;;;;;;5070460;28;20094;-83
2022/08/09 04:51:35;;;;;;;3.55;1.90;;;;;;;;;;5080202;28;20025;-81
2022/08/09 04:54:27;;;;;;;;;;;;;;;;;;;;;
2022/08/09 04:56:56;;;;;;;2.90;1.60;;;;;;;;;;5080003;28;20120;-82
2022/08/09 04:59:45;;;;;;;5.50;1.90;;;;;;;;;;5069529;28;20036;-82
2022/08/09 05:02:14;;;;;;;3.72;1.55;;;;;;;;;;5057152;28;20024;-82
2022/08/09 05:07:36;;;;;;;6.75;1.80;;;19.70;69.70;;;;;;5128018;22;20047;-82
2022/08/09 06:16:55;;;;;;;3.22;1.80;;;;;;;;;;5062900;28;20092;-83
2022/08/09 06:19:30;;;;;;;5.82;1.70;;;;;;;;;;5066904;28;20028;-84
2022/08/09 06:22:02;;;;;;;4.00;1.88;;;;;;;;;;5046026;28;20021;-85
2022/08/09 06:24:31;;;;;;;5.30;1.92;;;;;;;;;;5046215;28;20049;-86
2022/08/09 06:27:44;;;;;;;4.07;2.13;;;;;;;;;;5056157;28;20029;-85
2022/08/09 06:30:19;;;;;;;3.80;1.60;;;;;;;;;;5005072;28;20038;-85
2022/08/09 06:32:50;;;;;;;5.95;1.80;;;;;;;;;;4984790;28;20046;-85
2022/08/09 06:35:17;;;;;;;3.05;2.20;;;;;;;;;;5030746;28;20041;-83
2022/08/09 06:38:33;;;;;;;;;;;;;;;;;;;;;
2022/08/09 06:44:36;;;;;;;3.40;1.70;;;;;;;;;;4922629;28;20102;-83
2022/08/09 06:47:44;;;;;;;;;;;;;;;;;;;;;
2022/08/09 06:50:10;;;;;;;6.75;2.20;;;;;;;;;;4924885;29;20048;-78
2022/08/09 06:52:44;;;;;;;7.85;2.20;;;;;;;;;;4923647;29;20046;-77
2022/08/09 06:55:10;;;;;;;4.85;2.17;;;;;;;;;;5017096;28;20059;-79
2022/08/09 06:57:36;;;;;;;5.57;2.10;;;;;;;;;;5039223;28;20029;-76
2022/08/09 07:00:43;;;;;;;5.60;1.90;;;;;;;;;;5047021;28;20040;-84
2022/08/09 07:03:32;;;;;;;9.07;2.30;;;;;;;;;;5041334;28;20029;-83
2022/08/09 07:05:58;;;;;;;8.95;2.38;;;;;;;;;;5039710;28;20097;-84
2022/08/09 07:08:30;;;;;;;6.57;2.03;;;;;;;;;;5041326;28;20029;-85
2022/08/09 07:10:56;;;;;;;3.25;1.90;;;;;;;;;;5029256;28;20061;-84
2022/08/09 07:13:22;;;;;;;4.88;2.60;;;;;;;;;;5036734;28;20107;-82
2022/08/09 07:15:48;;;;;;;8.43;2.05;;;;;;;;;;5032641;28;20052;-86
2022/08/09 07:18:14;;;;;;;6.38;1.90;;;;;;;;;;5031992;28;20022;-84
2022/08/09 07:20:40;;;;;;;5.57;1.65;;;;;;;;;;5030969;28;20047;-80
2022/08/09 07:23:10;;;;;;;3.88;1.60;;;;;;;;;;5029784;28;20025;-85
2022/08/09 07:25:36;;;;;;;7.35;1.95;;;;;;;;;;5047136;28;20711;-84
2022/08/09 07:28:02;;;;;;;4.53;1.77;;;;;;;;;;5025911;28;21404;-83
2022/08/09 07:30:28;;;;;;;4.20;1.83;;;;;;;;;;5028193;28;20609;-83
2022/08/09 07:32:54;;;;;;;5.22;1.92;;;;;;;;;;5030479;28;20033;-81
2022/08/09 07:35:20;;;;;;;5.20;2.13;;;;;;;;;;5035087;28;20025;-84
2022/08/09 07:37:46;;;;;;;4.82;1.65;;;;;;;;;;5057216;28;20032;-85
2022/08/09 07:40:16;;;;;;;2.50;1.80;;;;;;;;;;5047748;28;20260;-83
2022/08/09 07:42:53;;;;;;;3.33;1.65;;;;;;;;;;5036334;28;20057;-86
2022/08/09 07:45:25;;;;;;;6.07;1.95;;;;;;;;;;5049927;28;20025;-84
2022/08/09 07:47:55;;;;;;;4.63;1.95;;;23.60;61.10;;;;;;5038934;28;20054;-86
2022/08/09 07:50:21;;;;;;;3.70;1.95;;;;;;;;;;5060432;28;20025;-81
2022/08/09 07:52:48;;;;;;;2.88;1.60;;;;;;;;;;5043716;28;20033;-84
2022/08/09 07:55:14;;;;;;;4.15;1.65;;;;;;;;;;5056187;28;20057;-80
2022/08/09 07:57:40;;;;;;;4.38;1.70;;;;;;;;;;5021260;28;20047;-82
2022/08/09 08:00:06;;;;;;;4.03;1.50;;;;;;;;;;5054241;28;20036;-84
2022/08/09 08:02:35;;;;;;;3.55;1.65;;;;;;;;;;5040808;28;20017;-82
2022/08/09 08:05:01;;;;;;;3.35;1.88;;;;;;;;;;5043418;28;20025;-82
2022/08/09 08:07:27;;;;;;;3.75;1.55;;;;;;;;;;5041748;28;20062;-85
2022/08/09 08:09:56;;;;;;;4.65;1.90;;;;;;;;;;5040653;28;20112;-82
2022/08/09 08:12:24;;;;;;;3.38;1.95;;;;;;;;;;5055231;28;20022;-84
2022/08/09 08:14:51;;;;;;;7.38;1.75;;;;;;;;;;5058292;28;20407;-83
2022/08/09 08:17:19;;;;;;;3.67;1.73;;;;;;;;;;5046824;28;20029;-83
2022/08/09 08:19:50;;;;;;;4.20;1.73;;;;;;;;;;5042257;28;20025;-83
2022/08/09 08:22:21;;;;;;;6.75;1.90;;;;;;;;;;5042200;28;20092;-86
2022/08/09 08:24:54;;;;;;;3.63;1.90;;;;;;;;;;5051824;28;20433;-82
2022/08/09 08:27:24;;;;;;;8.63;1.80;;;;;;;;;;5043317;28;20052;-88
2022/08/09 08:29:50;;;;;;;;;;;25.50;58.10;;;;;;5059770;28;20044;-86
2022/08/09 08:32:17;;;;;;;3.55;1.60;;;;;;;;;;5059945;28;19913;-80
2022/08/09 08:34:43;;;;;;;4.68;2.08;;;;;;;;;;5056851;28;20074;-84
2022/08/09 08:37:09;;;;;;;2.28;1.52;;;;;;;;;;5047794;28;20490;-84
2022/08/09 08:39:42;;;;;;;4.78;1.70;;;;;;;;;;5037699;28;20024;-83
2022/08/09 08:42:08;;;;;;;4.90;2.13;;;;;;;;;;5053620;28;20120;-83
2022/08/09 08:44:35;;;;;;;3.15;1.67;;;;;;;;;;5037765;28;20025;-84
2022/08/09 08:47:15;;;;;;;5.57;2.22;;;;;;;;;;5047075;28;20433;-83
2022/08/09 08:49:49;;;;;;;;;;;26.10;57.20;;;;;;5043645;28;20483;-85
2022/08/09 08:52:16;;;;;;;6.03;2.08;;;;;;;;;;5052755;28;19931;-81
2022/08/09 08:54:44;;;;;;;4.70;2.22;;;;;;;;;;5058499;28;20028;-83
2022/08/09 08:57:10;;;;;;;4.28;1.88;;;;;;;;;;5032915;28;20041;-83
2022/08/09 08:59:36;;;;;;;5.47;1.88;;;;;;;;;;5047753;28;20033;-83
2022/08/09 09:02:03;;;;;;;6.72;1.92;;;;;;;;;;5052167;28;20040;-83
2022/08/09 09:04:31;;;;;;;4.05;1.90;;;26.50;57.00;;;;;;5050069;28;20122;-82
2022/08/09 09:07:01;;;;;;;3.92;1.90;;;26.50;56.80;;;;;;5034891;28;20028;-82
2022/08/09 09:09:31;;;;;;;6.55;1.88;;;26.60;56.80;;;;;;5017205;28;20067;-82
2022/08/09 09:11:58;;;;;;;5.05;2.00;;;26.60;56.70;;;;;;5047366;28;20017;-84
2022/08/09 09:14:25;;;;;;;3.65;1.85;;;26.70;56.70;;;;;;5051091;28;20028;-84
2022/08/09 09:16:51;;;;;;;5.68;1.80;;;;;;;;;;5053928;28;20087;-83
2022/08/09 09:19:18;;;;;;;5.65;1.90;;;26.90;56.50;;;;;;5033537;28;20025;-84
2022/08/09 09:22:00;;;;;;;7.40;2.17;;;27.00;57.30;;;;;;5038226;28;20479;-82
2022/08/09 09:24:58;;;;;;;5.10;2.17;;;27.00;55.80;;;;;;5053208;28;20468;-80
2022/08/09 09:27:25;;;;;;;4.00;1.67;;;27.00;56.70;;;;;;5054356;28;20025;-82
2022/08/09 09:29:52;;;;;;;3.17;1.90;;;27.20;56.00;;;;;;5031194;28;20402;-82
2022/08/09 09:32:26;;;;;;;10.45;2.33;;;27.20;56.50;;;;;;5049585;28;20083;-80
2022/08/09 09:35:23;;;;;;;5.45;2.00;;;27.40;55.70;;;;;;5050251;28;20036;-83
2022/08/09 09:37:52;;;;;;;4.18;1.80;;;27.40;54.90;;;;;;5037326;28;20029;-82
2022/08/09 09:40:18;;;;;;;;;;;27.50;55.60;;;;;;5047981;28;20386;-81
2022/08/09 09:42:57;;;;;;;5.32;1.70;;;27.60;55.30;;;;;;5054799;28;19908;-81
2022/08/09 09:45:23;;;;;;;3.40;1.73;;;;;;;;;;5038276;28;20037;-82
2022/08/09 09:47:52;;;;;;;6.97;1.90;;;;;;;;;;5040195;28;20043;-82
2022/08/09 09:50:21;;;;;;;6.38;2.70;;;;;;;;;;5051124;28;20056;-85
2022/08/09 09:52:53;;;;;;;4.68;1.95;;;28.10;53.70;;;;;;5036401;28;20029;-82
2022/08/09 09:55:19;;;;;;;3.45;1.85;;;;;;;;;;5034274;28;20036;-80
2022/08/09 09:58:03;;;;;;;4.88;2.05;;;28.40;53.40;;;;;;5042414;28;20083;-81
2022/08/09 10:00:29;;;;;;;4.93;1.90;;;;;;;;;;5049341;28;20453;-84
2022/08/09 10:02:55;;;;;;;4.28;2.17;;;;;;;;;;5023161;28;20076;-81
2022/08/09 10:05:23;;;;;;;5.18;1.70;;;;;;;;;;5026119;28;20028;-84
2022/08/09 10:07:49;;;;;;;4.70;1.88;;;;;;;;;;5052751;28;20033;-82
2022/08/09 10:10:28;;;;;;;4.20;1.65;;;28.80;51.90;;;;;;5036233;28;20032;-82
2022/08/09 10:12:54;;;;;;;5.07;1.80;;;;;;;;;;5050540;28;20446;-84
2022/08/09 10:15:20;;;;;;;3.75;1.60;;;;;;;;;;5049965;28;20037;-84
2022/08/09 10:17:49;;;;;;;2.78;1.60;;;28.90;52.20;;;;;;5036987;28;20375;-81
2022/08/09 10:20:18;;;;;;;6.57;1.60;;;;;;;;;;5043711;28;20033;-81
2022/08/09 10:22:45;;;;;;;8.52;1.98;;;;;;;;;;5044216;28;20139;-85
2022/08/09 10:25:11;;;;;;;2.53;1.67;;;;;;;;;;5046808;28;20033;-81
2022/08/09 10:27:37;;;;;;;3.28;2.15;;;;;;;;;;5033808;28;20029;-82
2022/08/09 10:30:05;;;;;;;3.33;1.60;;;29.30;51.00;;;;;;5033567;28;20036;-82
2022/08/09 10:32:31;;;;;;;4.85;1.90;;;;;;;;;;5026191;28;20025;-79
2022/08/09 10:34:57;;;;;;;5.93;1.80;;;;;;;;;;5049918;28;20055;-80
2022/08/09 10:37:23;;;;;;;3.88;1.63;;;29.50;51.30;;;;;;5059383;28;20017;-80
2022/08/09 10:39:50;;;;;;;3.28;1.80;;;;;;;;;;5045693;28;20440;-81
2022/08/09 10:42:17;;;;;;;3.05;1.40;;;;;;;;;;5059959;28;20035;-83
2022/08/09 10:44:45;;;;;;;4.65;1.80;;;29.40;50.20;;;;;;5050584;28;20466;-82
2022/08/09 10:47:21;;;;;;;3.00;1.75;;;;;;;;;;5044179;28;20064;-82
2022/08/09 10:49:50;;;;;;;6.65;1.60;;;;;;;;;;5034784;28;20498;-82
2022/08/09 10:52:32;;;;;;;3.15;1.45;;;29.50;49.40;;;;;;5045298;28;20033;-83
2022/08/09 10:55:17;;;;;;;3.05;1.40;;;29.50;49.60;;;;;;5050660;28;20512;-83
2022/08/09 10:57:51;;;;;;;4.15;1.70;;;29.50;49.50;;;;;;5051377;28;20032;-83
2022/08/09 11:00:29;;;;;;;2.80;1.60;;;;;;;;;;5052534;28;20033;-80
2022/08/09 11:02:56;;;;;;;3.65;2.90;;;29.80;49.30;;;;;;5027454;28;20040;-80
2022/08/09 11:05:23;;;;;;;4.35;1.63;;;30.00;48.00;;;;;;5034145;28;20071;-83
2022/08/09 11:07:50;;;;;;;4.15;1.85;;;30.00;48.90;;;;;;5044584;28;20029;-81
2022/08/09 11:10:36;;;;;;;6.82;2.95;;;30.00;49.00;;;;;;5034344;28;20414;-82
2022/08/09 11:13:20;;;;;;;6.00;2.10;;;;;;;;;;5054422;28;20028;-85
2022/08/09 11:15:46;;;;;;;3.58;1.35;;;;;;;;;;5038073;28;20037;-80
2022/08/09 11:18:44;;;;;;;4.47;1.58;;;30.00;48.50;;;;;;5053418;28;20073;-81
2022/08/09 11:21:10;;;;;;;3.53;1.50;;;;;;;;;;5038367;28;20028;-81
2022/08/09 11:23:58;;;;;;;4.97;1.88;;;30.00;48.80;;;;;;5055337;28;20119;-81
2022/08/09 11:26:45;;;;;;;4.30;1.55;;;30.10;49.10;;;;;;5052266;28;20033;-82
2022/08/09 11:29:56;;;;;;;3.45;1.38;;;30.30;48.70;;;;;;5051036;28;20089;-82
2022/08/09 11:32:46;;;;;;;6.40;1.83;;;30.40;49.00;;;;;;5052192;28;20159;-80
2022/08/09 11:35:27;;;;;;;6.22;1.50;;;30.50;49.00;;;;;;5033897;28;20025;-80
2022/08/09 11:37:57;;;;;;;3.28;1.52;;;30.70;48.50;;;;;;5053181;28;20053;-82
2022/08/09 11:40:31;;;;;;;3.22;1.77;;;30.40;48.60;;;;;;5034836;28;20032;-80
2022/08/09 11:42:59;;;;;;;3.60;1.40;;;30.30;48.70;;;;;;5049087;28;20024;-82
2022/08/09 11:45:30;;;;;;;4.07;1.80;;;30.50;49.80;;;;;;5035716;28;20112;-82
2022/08/09 11:48:01;;;;;;;3.28;1.90;;;30.60;49.50;;;;;;5050262;28;20025;-80
2022/08/09 11:50:55;;;;;;;2.63;1.40;;;30.70;49.00;;;;;;5033565;28;20052;-83
2022/08/09 11:53:22;;;;;;;2.80;1.73;;;;;;;;;;5054176;28;20123;-82
2022/08/09 11:55:49;;;;;;;3.50;2.00;;;30.80;48.60;;;;;;5036873;28;20029;-80
2022/08/09 11:58:15;;;;;;;2.75;1.52;;;;;;;;;;5034065;28;20111;-81
2022/08/09 12:00:49;;;;;;;3.08;1.60;;;30.80;48.80;;;;;;5052646;28;20061;-84
2022/08/09 12:03:15;;;;;;;2.88;1.80;;;31.10;48.60;;;;;;5045585;28;20029;-79
2022/08/09 12:05:41;;;;;;;2.85;1.30;;;31.10;49.10;;;;;;5039199;28;20037;-82
2022/08/09 12:08:09;;;;;;;2.38;1.55;;;31.20;48.90;;;;;;5032707;28;20505;-79
2022/08/09 12:10:41;;;;;;;3.17;1.50;;;31.30;48.90;;;;;;5034366;28;20041;-81
2022/08/09 12:13:07;;;;;;;2.28;1.40;;;31.30;48.30;;;;;;5031925;28;20033;-81
2022/08/09 12:15:33;;;;;;;2.40;1.48;;;;;;;;;;5043211;28;20029;-80
2022/08/09 12:17:59;;;;;;;5.47;1.50;;;;;;;;;;5058463;28;20029;-82
2022/08/09 12:20:27;;;;;;;4.22;1.50;;;31.40;49.50;;;;;;5049316;28;20032;-80
2022/08/09 12:23:02;;;;;;;4.70;1.45;;;31.40;49.30;;;;;;5062023;28;20092;-81
2022/08/09 12:25:34;;;;;;;2.25;1.50;;;;;;;;;;5060370;28;20036;-81
2022/08/09 12:28:10;;;;;;;2.50;1.58;;;;;;;;;;5061493;28;20032;-82
2022/08/09 12:30:36;;;;;;;6.38;1.55;;;;;;;;;;5062168;28;20037;-81
2022/08/09 12:33:06;;;;;;;3.33;1.58;;;31.60;49.30;;;;;;5060238;28;20494;-82
2022/08/09 12:35:32;;;;;;;2.95;1.98;;;;;;;;;;5041389;28;20100;-82
2022/08/09 12:37:58;;;;;;;3.25;1.73;;;;;;;;;;5057559;28;20044;-83
2022/08/09 12:40:27;;;;;;;3.75;1.40;;;;;;;;;;5051613;28;20033;-82
2022/08/09 12:42:54;;;;;;;2.88;1.80;;;;;;;;;;5037576;28;20020;-85
2022/08/09 12:45:21;;;;;;;5.60;2.20;;;;;;;;;;5042856;28;20193;-84
2022/08/09 12:47:50;;;;;;;5.40;1.80;;;31.20;49.60;;;;;;5040955;28;20075;-82
2022/08/09 12:50:16;;;;;;;2.97;1.63;;;;;;;;;;5058835;28;20040;-81
2022/08/09 12:52:46;;;;;;;2.25;1.60;;;31.20;49.60;;;;;;5022498;28;20571;-78
2022/08/09 12:55:32;;;;;;;2.28;1.50;;;31.40;49.10;;;;;;5056099;28;20498;-80
2022/08/09 12:58:09;;;;;;;2.72;1.80;;;31.40;49.30;;;;;;5052839;28;20536;-80
2022/08/09 13:00:40;;;;;;;3.63;1.75;;;;;;;;;;5053199;28;20025;-81
2022/08/09 13:03:07;;;;;;;2.63;1.80;;;;;;;;;;5046022;28;20108;-81
2022/08/09 13:05:47;;;;;;;2.15;1.50;;;31.40;49.40;;;;;;5038655;28;20029;-81
2022/08/09 13:08:14;;;;;;;5.47;1.90;;;31.60;49.30;;;;;;5049794;28;20095;-80
2022/08/09 13:10:54;;;;;;;3.78;2.00;;;31.50;49.30;;;;;;5056576;28;20084;-81
2022/08/09 13:13:43;;;;;;;4.60;1.60;;;31.60;48.60;;;;;;5059866;28;20036;-80
2022/08/09 13:16:11;;;;;;;3.38;1.95;;;31.50;49.30;;;;;;5031246;28;20029;-82
2022/08/09 13:18:48;;;;;;;3.30;1.88;;;31.50;49.50;;;;;;5040366;28;20153;-82
2022/08/09 13:21:28;;;;;;;3.05;1.75;;;31.80;49.40;;;;;;5024174;28;20075;-83
2022/08/09 13:23:58;;;;;;;3.85;1.63;;;31.90;48.50;;;;;;5023646;28;20021;-82
2022/08/09 13:26:30;;;;;;;3.80;1.80;;;;;;;;;;5027736;28;20028;-82
2022/08/09 13:29:05;;;;;;;3.95;1.60;;;;;;;;;;5055454;28;20033;-81
2022/08/09 13:31:31;;;;;;;2.25;1.42;;;;;;;;;;5057886;28;20024;-79
2022/08/09 13:33:57;;;;;;;4.25;1.77;;;;;;;;;;5054824;28;20033;-80
2022/08/09 13:36:27;;;;;;;2.80;1.60;;;;;;;;;;5056167;28;20017;-81
2022/08/09 13:38:53;;;;;;;3.78;1.58;;;;;;;;;;5070476;28;20013;-80
2022/08/09 13:41:22;;;;;;;2.28;1.42;;;;;;;;;;5068869;28;20056;-79
2022/08/09 13:43:48;;;;;;;3.58;1.80;;;;;;;;;;5052643;28;20052;-78
2022/08/09 13:46:14;;;;;;;6.05;1.67;;;;;;;;;;5052139;28;20044;-80
2022/08/09 13:48:40;;;;;;;3.08;1.70;;;;;;;;;;5051910;28;20032;-80
2022/08/09 13:51:09;;;;;;;4.10;2.00;;;31.60;48.30;;;;;;5049423;28;20285;-79
2022/08/09 13:53:36;;;;;;;3.60;1.60;;;;;;;;;;5051854;28;20033;-79
2022/08/09 13:56:02;;;;;;;5.10;1.70;;;;;;;;;;5030958;28;20029;-81
2022/08/09 13:58:28;;;;;;;3.97;1.65;;;;;;;;;;5052376;28;20518;-81
2022/08/09 14:00:54;;;;;;;2.10;1.50;;;;;;;;;;5051239;28;20048;-80
2022/08/09 14:03:21;;;;;;;4.72;1.50;;;;;;;;;;5041579;28;20116;-81
2022/08/09 14:05:50;;;;;;;4.82;2.05;;;;;;;;;;5053867;28;20056;-80
2022/08/09 14:08:16;;;;;;;4.40;1.70;;;;;;;;;;5049591;28;20036;-79
2022/08/09 14:10:46;;;;;;;3.17;1.50;;;31.90;48.40;;;;;;5033873;28;20143;-80
2022/08/09 14:13:15;;;;;;;2.33;1.30;;;;;;;;;;5051198;28;20029;-82
2022/08/09 14:15:41;;;;;;;2.85;1.50;;;;;;;;;;5048674;28;20025;-83
2022/08/09 14:18:07;;;;;;;3.38;1.50;;;;;;;;;;5032774;28;20033;-82
2022/08/09 14:20:33;;;;;;;2.15;1.40;;;;;;;;;;5029263;28;20032;-80
2022/08/09 14:22:59;;;;;;;2.92;1.50;;;;;;;;;;5049953;28;20031;-81
2022/08/09 14:25:27;;;;;;;2.65;1.70;;;31.80;46.80;;;;;;5050660;28;20108;-81
2022/08/09 14:27:53;;;;;;;3.10;1.60;;;;;;;;;;5047682;28;20035;-84
2022/08/09 14:30:19;;;;;;;3.47;1.50;;;;;;;;;;5052274;28;20033;-83
2022/08/09 14:32:45;;;;;;;2.90;1.20;;;;;;;;;;5052041;28;20048;-81
2022/08/09 14:35:14;;;;;;;3.60;1.50;;;;;;;;;;5040473;28;20383;-82
2022/08/09 14:37:40;;;;;;;2.75;1.73;;;;;;;;;;5036908;28;20043;-80
2022/08/09 14:40:06;;;;;;;4.55;1.75;;;;;;;;;;5051908;28;20032;-81
2022/08/09 14:42:35;;;;;;;2.63;1.38;;;;;;;;;;5055260;28;20028;-79
2022/08/09 14:45:03;;;;;;;4.45;1.63;;;31.50;45.90;;;;;;5057513;28;20036;-81
2022/08/09 14:47:29;;;;;;;1.80;1.30;;;;;;;;;;5064865;28;20029;-81
2022/08/09 14:49:58;;;;;;;1.83;1.40;;;;;;;;;;5065135;28;20502;-81
2022/08/09 14:52:34;;;;;;;8.35;1.55;;;;;;;;;;5060195;28;20550;-82
2022/08/09 14:55:03;;;;;;;1.67;1.30;;;;;;;;;;5037865;28;20029;-79
2022/08/09 14:57:31;;;;;;;5.07;1.58;;;;;;;;;;5060147;28;20036;-80
2022/08/09 14:59:57;;;;;;;5.85;1.73;;;;;;;;;;5046993;28;20311;-80
2022/08/09 15:02:23;;;;;;;3.15;1.10;;;;;;;;;;5039964;28;20025;-80
2022/08/09 15:04:49;;;;;;;5.70;1.58;;;;;;;;;;5051709;28;20037;-79
2022/08/09 15:07:16;;;;;;;2.75;1.40;;;;;;;;;;5046680;28;20020;-80
2022/08/09 15:09:42;;;;;;;1.90;1.17;;;;;;;;;;5038746;28;20075;-82
2022/08/09 15:12:08;;;;;;;3.22;1.25;;;;;;;;;;5050060;28;20306;-80
2022/08/09 15:14:34;;;;;;;2.92;1.30;;;;;;;;;;5051964;28;20398;-81
2022/08/09 15:17:03;;;;;;;2.25;1.30;;;31.30;44.50;;;;;;5035717;28;20092;-80
2022/08/09 15:19:29;;;;;;;2.30;1.50;;;;;;;;;;5030613;28;20453;-79
2022/08/09 15:21:55;;;;;;;2.95;1.30;;;;;;;;;;5054386;28;20034;-81
2022/08/09 15:24:23;;;;;;;2.35;1.23;;;;;;;;;;5063570;28;20020;-80
2022/08/09 15:26:49;;;;;;;1.83;1.33;;;;;;;;;;5035894;28;20025;-79
2022/08/09 15:29:16;;;;;;;4.03;1.40;;;;;;;;;;5021383;28;20068;-78
2022/08/09 15:31:42;;;;;;;2.95;1.40;;;;;;;;;;5055136;28;20029;-81
2022/08/09 15:34:08;;;;;;;2.90;1.20;;;;;;;;;;5033468;28;20037;-79
2022/08/09 15:36:34;;;;;;;2.50;1.50;;;;;;;;;;5054540;28;20112;-79
2022/08/09 15:39:00;;;;;;;2.40;1.40;;;31.30;45.70;;;;;;5035812;28;20083;-79
2022/08/09 15:41:25;;;;;;;4.53;1.50;;;31.30;46.00;;;;;;5055164;28;20121;-79
2022/08/09 15:43:51;;;;;;;4.50;1.70;;;31.30;46.00;;;;;;5050898;28;20032;-80
2022/08/09 15:46:17;;;;;;;4.15;1.42;;;31.30;46.80;;;;;;5036435;28;20052;-80
2022/08/09 15:48:43;;;;;;;2.97;1.42;;;;;;;;;;5037678;28;20124;-79
2022/08/09 15:51:09;;;;;;;5.18;1.42;;;;;;;;;;5048095;28;20037;-81